createdAt,value
2018-08-18T00:00:01.928Z,9.37
2018-08-18T00:02:34.836Z,10.20
2018-08-18T00:05:03.703Z,11.67
2018-08-18T00:07:32.330Z,9.87
2018-08-18T00:10:01.311Z,9.13
2018-08-18T00:12:30.536Z,9.60
2018-08-18T00:14:59.304Z,8.63
2018-08-18T00:17:27.719Z,10.33
2018-08-18T00:19:56.561Z,10.23
2018-08-18T00:22:25.153Z,9.87
2018-08-18T00:24:58.452Z,8.47
2018-08-18T00:27:27.656Z,11.90
2018-08-18T00:30:01.591Z,9.83
2018-08-18T00:32:30.716Z,8.67
2018-08-18T00:34:59.332Z,9.13
2018-08-18T00:37:27.770Z,8.40
2018-08-18T00:39:56.907Z,8.47
2018-08-18T00:42:25.744Z,9.37
2018-08-18T00:44:54.482Z,9.50
2018-08-18T00:47:23.272Z,10.13
2018-08-18T00:49:51.888Z,10.83
2018-08-18T00:52:20.300Z,7.97
2018-08-18T00:54:48.805Z,8.17
2018-08-18T00:57:27.831Z,10.70
2018-08-18T00:59:56.663Z,10.93
2018-08-18T01:02:25.603Z,7.80
2018-08-18T01:04:58.596Z,8.30
2018-08-18T01:07:28.119Z,8.67
2018-08-18T01:09:57.327Z,7.87
2018-08-18T01:12:26.577Z,7.80
2018-08-18T01:14:56.002Z,8.63
2018-08-18T01:17:24.931Z,11.73
2018-08-18T01:19:54.483Z,12.07
2018-08-18T01:22:22.998Z,8.10
2018-08-18T01:24:52.184Z,8.30
2018-08-18T01:27:21.050Z,10.77
2018-08-18T01:29:54.959Z,12.40
2018-08-18T01:32:23.530Z,11.53
2018-08-18T01:34:52.867Z,11.83
2018-08-18T01:37:21.631Z,10.93
2018-08-18T01:39:53.560Z,11.07
2018-08-18T01:42:22.798Z,11.03
2018-08-18T01:44:53.780Z,14.77
2018-08-18T01:47:22.306Z,10.83
2018-08-18T01:49:50.918Z,11.47
2018-08-18T01:52:23.211Z,14.67
2018-08-18T01:54:51.924Z,11.87
2018-08-18T01:57:21.355Z,13.50
2018-08-18T01:59:50.182Z,11.80
2018-08-18T02:02:20.847Z,12.07
2018-08-18T02:04:49.694Z,15.27
2018-08-18T02:07:21.953Z,12.67
2018-08-18T02:09:50.939Z,15.57
2018-08-18T02:12:19.447Z,17.93
2018-08-18T02:14:48.080Z,19.37
2018-08-18T02:17:23.148Z,16.03
2018-08-18T02:19:51.691Z,18.67
2018-08-18T02:22:22.042Z,16.70
2018-08-18T02:24:50.455Z,18.63
2018-08-18T02:27:19.112Z,16.40
2018-08-18T02:29:59.314Z,18.00
2018-08-18T02:32:29.703Z,17.83
2018-08-18T02:34:58.613Z,20.77
2018-08-18T02:37:28.094Z,18.27
2018-08-18T02:39:56.794Z,19.73
2018-08-18T02:42:25.467Z,21.30
2018-08-18T02:44:54.325Z,20.70
2018-08-18T02:47:23.329Z,20.80
2018-08-18T02:49:53.002Z,19.10
2018-08-18T02:52:24.464Z,21.90
2018-08-18T02:55:00.431Z,19.50
2018-08-18T02:57:33.231Z,20.07
2018-08-18T03:00:03.089Z,18.30
2018-08-18T03:02:31.631Z,20.30
2018-08-18T03:05:00.498Z,18.23
2018-08-18T03:07:33.041Z,19.97
2018-08-18T03:10:09.957Z,22.30
2018-08-18T03:12:45.495Z,19.80
2018-08-18T03:16:17.521Z,19.73
2018-08-18T03:18:48.111Z,24.27
2018-08-18T03:21:16.859Z,19.17
2018-08-18T03:23:57.543Z,21.83
2018-08-18T03:26:31.110Z,20.13
2018-08-18T03:29:03.024Z,21.70
2018-08-18T03:31:31.692Z,22.47
2018-08-18T03:34:00.547Z,25.77
2018-08-18T03:36:31.023Z,24.97
2018-08-18T03:39:00.316Z,23.07
2018-08-18T03:41:30.380Z,23.37
2018-08-18T03:43:59.573Z,24.90
2018-08-18T03:46:28.164Z,24.67
2018-08-18T03:48:56.635Z,23.20
2018-08-18T03:51:32.628Z,24.23
2018-08-18T03:54:02.037Z,23.93
2018-08-18T03:56:31.241Z,24.60
2018-08-18T03:59:00.321Z,23.30
2018-08-18T04:01:41.846Z,24.23
2018-08-18T04:04:11.536Z,25.03
2018-08-18T04:06:41.070Z,25.13
2018-08-18T04:09:17.603Z,24.67
2018-08-18T04:11:46.202Z,26.93
2018-08-18T04:14:15.389Z,24.53
2018-08-18T04:16:45.684Z,25.80
2018-08-18T04:19:16.127Z,23.77
2018-08-18T04:21:44.957Z,26.80
2018-08-18T04:24:13.912Z,24.87
2018-08-18T04:26:42.374Z,26.93
2018-08-18T04:29:10.951Z,24.83
2018-08-18T04:31:39.376Z,25.57
2018-08-18T04:34:08.603Z,28.33
2018-08-18T04:36:37.051Z,25.43
2018-08-18T04:39:10.478Z,26.10
2018-08-18T04:41:39.259Z,27.87
2018-08-18T04:44:07.929Z,24.50
2018-08-18T04:46:36.366Z,29.37
2018-08-18T04:49:05.824Z,29.90
2018-08-18T04:51:34.420Z,26.80
2018-08-18T04:54:03.374Z,27.27
2018-08-18T04:56:31.832Z,26.63
2018-08-18T04:59:01.045Z,29.70
2018-08-18T05:01:29.556Z,30.40
2018-08-18T05:04:07.263Z,28.53
2018-08-18T05:06:37.590Z,28.40
2018-08-18T05:09:09.307Z,27.30
2018-08-18T05:11:37.829Z,29.43
2018-08-18T05:14:06.502Z,28.83
2018-08-18T05:16:34.942Z,31.67
2018-08-18T05:19:03.459Z,27.03
2018-08-18T05:21:32.100Z,29.03
2018-08-18T05:24:20.193Z,31.63
2018-08-18T05:26:48.808Z,28.73
2018-08-18T05:29:17.554Z,30.37
2018-08-18T05:31:46.022Z,29.70
2018-08-18T05:34:14.589Z,30.30
2018-08-18T05:36:43.468Z,30.47
2018-08-18T05:39:12.153Z,25.73
2018-08-18T05:41:41.427Z,26.23
2018-08-18T05:44:10.033Z,27.00
2018-08-18T05:46:38.550Z,26.17
2018-08-18T05:49:12.542Z,27.17
2018-08-18T05:51:43.257Z,26.73
2018-08-18T05:54:15.398Z,30.77
2018-08-18T05:56:45.241Z,28.50
2018-08-18T05:59:14.148Z,27.23
2018-08-18T06:01:42.738Z,27.93
2018-08-18T06:04:14.866Z,28.77
2018-08-18T06:06:44.620Z,27.43
2018-08-18T06:09:14.545Z,29.20
2018-08-18T06:11:43.418Z,27.23
2018-08-18T06:14:12.907Z,31.07
2018-08-18T06:16:41.841Z,28.37
2018-08-18T06:19:10.389Z,27.33
2018-08-18T06:21:38.867Z,31.33
2018-08-18T06:24:07.581Z,28.97
2018-08-18T06:26:36.423Z,29.13
2018-08-18T06:29:05.350Z,32.73
2018-08-18T06:31:34.459Z,29.60
2018-08-18T06:34:03.013Z,29.03
2018-08-18T06:36:31.800Z,29.00
2018-08-18T06:39:01.295Z,27.60
2018-08-18T06:41:30.797Z,28.70
2018-08-18T06:43:59.569Z,27.37
2018-08-18T06:46:28.217Z,28.27
2018-08-18T06:48:57.010Z,28.07
2018-08-18T06:51:25.645Z,29.37
2018-08-18T06:53:54.096Z,28.70
2018-08-18T06:56:22.735Z,27.60
2018-08-18T06:58:51.222Z,28.97
2018-08-18T07:01:20.744Z,31.77
2018-08-18T07:03:49.172Z,27.93
2018-08-18T07:06:18.048Z,28.03
2018-08-18T07:08:52.954Z,28.30
2018-08-18T07:11:21.439Z,27.10
2018-08-18T07:13:50.360Z,29.73
2018-08-18T07:16:18.943Z,28.83
2018-08-18T07:18:47.388Z,27.97
2018-08-18T07:21:15.883Z,26.23
2018-08-18T07:23:44.428Z,27.20
2018-08-18T07:26:12.911Z,27.10
2018-08-18T07:28:41.506Z,32.10
2018-08-18T07:31:10.154Z,26.87
2018-08-18T07:33:38.783Z,28.57
2018-08-18T07:36:07.255Z,27.50
2018-08-18T07:38:35.888Z,26.93
2018-08-18T07:41:04.738Z,26.93
2018-08-18T07:43:34.774Z,25.67
2018-08-18T07:46:05.723Z,23.90
2018-08-18T07:48:34.323Z,25.50
2018-08-18T07:51:02.782Z,26.00
2018-08-18T07:53:31.438Z,27.37
2018-08-18T07:56:00.106Z,23.50
2018-08-18T07:58:28.871Z,25.03
2018-08-18T08:00:58.787Z,24.03
2018-08-18T08:03:27.410Z,23.60
2018-08-18T08:05:55.882Z,25.97
2018-08-18T08:08:24.512Z,22.97
2018-08-18T08:10:59.953Z,24.37
2018-08-18T08:13:28.423Z,25.60
2018-08-18T08:15:57.910Z,21.57
2018-08-18T08:18:26.745Z,20.80
2018-08-18T08:20:55.444Z,22.20
2018-08-18T08:23:24.209Z,21.33
2018-08-18T08:25:52.778Z,20.83
2018-08-18T08:28:21.213Z,22.63
2018-08-18T08:30:50.773Z,22.27
2018-08-18T08:33:32.525Z,24.43
2018-08-18T08:36:02.013Z,21.77
2018-08-18T08:38:41.837Z,24.30
2018-08-18T08:41:12.298Z,22.90
2018-08-18T08:43:40.903Z,24.43
2018-08-18T08:46:09.358Z,21.63
2018-08-18T08:48:38.006Z,23.03
2018-08-18T08:51:07.042Z,23.37
2018-08-18T08:53:35.628Z,20.33
2018-08-18T08:56:04.106Z,22.30
2018-08-18T08:58:34.146Z,22.53
2018-08-18T09:01:02.659Z,22.03
2018-08-18T09:03:31.798Z,22.90
2018-08-18T09:06:00.983Z,20.47
2018-08-18T09:08:29.845Z,22.70
2018-08-18T09:10:58.392Z,20.27
2018-08-18T09:13:27.052Z,19.73
2018-08-18T09:15:55.580Z,18.97
2018-08-18T09:18:24.269Z,21.30
2018-08-18T09:20:52.725Z,19.57
2018-08-18T09:23:21.397Z,17.60
2018-08-18T09:25:49.945Z,19.97
2018-08-18T09:28:18.773Z,17.87
2018-08-18T09:30:47.269Z,18.43
2018-08-18T09:33:15.808Z,21.53
2018-08-18T09:35:55.814Z,20.00
2018-08-18T09:38:24.312Z,17.33
2018-08-18T09:40:53.971Z,17.03
2018-08-18T09:43:24.347Z,16.83
2018-08-18T09:45:54.619Z,16.30
2018-08-18T09:48:23.788Z,15.87
2018-08-18T09:50:54.279Z,17.97
2018-08-18T09:53:23.264Z,17.67
2018-08-18T09:55:51.776Z,16.37
2018-08-18T09:58:20.441Z,15.23
2018-08-18T10:00:51.102Z,15.67
2018-08-18T10:03:19.604Z,17.97
2018-08-18T10:05:48.173Z,18.47
2018-08-18T10:08:16.603Z,15.97
2018-08-18T10:10:45.170Z,17.20
2018-08-18T10:13:13.656Z,18.40
2018-08-18T10:15:42.170Z,17.93
2018-08-18T10:18:11.036Z,16.43
2018-08-18T10:20:44.907Z,15.30
2018-08-18T10:23:13.658Z,14.83
2018-08-18T10:25:42.360Z,16.60
2018-08-18T10:28:10.817Z,12.90
2018-08-18T10:30:39.465Z,12.27
2018-08-18T10:33:08.004Z,16.40
2018-08-18T10:35:37.047Z,14.27
2018-08-18T10:38:06.650Z,14.00
2018-08-18T10:40:35.202Z,11.53
2018-08-18T10:43:04.002Z,14.13
2018-08-18T10:45:32.638Z,13.03
2018-08-18T10:48:01.769Z,11.93
2018-08-18T10:50:53.254Z,13.93
2018-08-18T10:53:21.744Z,12.47
2018-08-18T10:55:50.296Z,12.00
2018-08-18T10:58:31.276Z,12.33
2018-08-18T11:01:01.097Z,14.07
2018-08-18T11:03:31.150Z,12.60
2018-08-18T11:05:59.798Z,11.40
2018-08-18T11:08:28.365Z,11.77
2018-08-18T11:10:57.052Z,13.67
2018-08-18T11:13:25.547Z,11.17
2018-08-18T11:15:53.983Z,11.60
2018-08-18T11:18:22.586Z,11.80
2018-08-18T11:20:51.024Z,11.53
2018-08-18T11:23:19.519Z,11.87
2018-08-18T11:25:51.327Z,12.63
2018-08-18T11:28:23.804Z,11.60
2018-08-18T11:30:53.321Z,13.13
2018-08-18T11:33:38.601Z,13.30
2018-08-18T11:36:08.277Z,14.37
2018-08-18T11:38:37.205Z,14.47
2018-08-18T11:41:05.724Z,13.83
2018-08-18T11:43:43.570Z,14.53
2018-08-18T11:46:12.136Z,13.07
2018-08-18T11:48:40.678Z,13.90
2018-08-18T11:51:09.130Z,12.77
2018-08-18T11:53:47.833Z,12.70
2018-08-18T11:56:16.761Z,11.60
2018-08-18T11:58:55.363Z,15.33
2018-08-18T12:01:28.072Z,11.50
2018-08-18T12:03:56.862Z,11.20
2018-08-18T12:06:25.374Z,12.77
2018-08-18T12:08:53.859Z,9.93
2018-08-18T12:11:22.424Z,10.70
2018-08-18T12:13:50.839Z,11.27
2018-08-18T12:16:19.751Z,13.17
2018-08-18T12:18:48.943Z,11.00
2018-08-18T12:21:17.830Z,11.40
2018-08-18T12:23:47.793Z,9.63
2018-08-18T12:26:20.633Z,9.50
2018-08-18T12:28:51.179Z,9.97
2018-08-18T12:31:22.937Z,9.63
2018-08-18T12:33:51.443Z,10.53
2018-08-18T12:36:20.576Z,9.50
2018-08-18T12:38:54.768Z,10.17
2018-08-18T12:41:23.375Z,10.97
2018-08-18T12:43:54.212Z,9.20
2018-08-18T12:46:24.328Z,17.43
2018-08-18T12:48:54.084Z,12.00
2018-08-18T12:51:22.631Z,12.47
2018-08-18T12:53:53.261Z,10.57
2018-08-18T12:56:23.800Z,10.50
2018-08-18T12:58:52.236Z,10.00
2018-08-18T13:01:37.362Z,9.10
2018-08-18T13:04:08.151Z,9.50
2018-08-18T13:06:55.414Z,8.50
2018-08-18T13:09:27.061Z,8.53
2018-08-18T13:11:58.002Z,9.70
2018-08-18T13:14:28.669Z,9.57
2018-08-18T13:16:57.812Z,9.10
2018-08-18T13:19:28.995Z,9.33
2018-08-18T13:21:57.996Z,8.53
2018-08-18T13:24:27.961Z,11.57
2018-08-18T13:26:56.597Z,12.13
2018-08-18T13:29:25.066Z,9.03
2018-08-18T13:31:53.842Z,8.23
2018-08-18T13:34:22.279Z,8.50
2018-08-18T13:36:50.831Z,8.03
2018-08-18T13:39:20.347Z,8.43
2018-08-18T13:41:50.066Z,8.63
2018-08-18T13:44:27.692Z,8.93
2018-08-18T13:46:56.186Z,9.37
2018-08-18T13:49:25.759Z,8.37
2018-08-18T13:51:54.615Z,7.83
2018-08-18T13:54:23.143Z,9.17
2018-08-18T13:56:51.705Z,8.80
2018-08-18T13:59:35.500Z,8.43
2018-08-18T14:02:04.000Z,8.60
2018-08-18T14:04:32.804Z,9.43
2018-08-18T14:07:01.644Z,10.23
2018-08-18T14:09:31.006Z,10.67
2018-08-18T14:12:04.938Z,8.20
2018-08-18T14:14:33.709Z,8.63
2018-08-18T14:17:02.588Z,8.60
2018-08-18T14:19:31.709Z,8.60
2018-08-18T14:22:06.324Z,7.87
2018-08-18T14:24:35.779Z,7.90
2018-08-18T14:27:06.925Z,8.10
2018-08-18T14:29:35.462Z,8.40
2018-08-18T14:32:08.335Z,8.67
2018-08-18T14:34:36.747Z,8.23
2018-08-18T14:37:11.978Z,10.03
2018-08-18T14:39:41.561Z,9.43
2018-08-18T14:42:10.161Z,8.20
2018-08-18T14:44:38.824Z,11.33
2018-08-18T14:47:07.708Z,7.87
2018-08-18T14:49:36.156Z,8.37
2018-08-18T14:52:06.065Z,8.17
2018-08-18T14:54:34.573Z,8.63
2018-08-18T14:57:04.076Z,8.00
2018-08-18T14:59:34.282Z,7.77
2018-08-18T15:02:04.502Z,7.87
2018-08-18T15:04:33.374Z,8.07
2018-08-18T15:07:02.287Z,8.23
2018-08-18T15:09:41.738Z,8.00
2018-08-18T15:12:10.225Z,7.87
2018-08-18T15:14:38.765Z,8.17
2018-08-18T15:17:07.180Z,8.40
2018-08-18T15:19:35.739Z,10.40
2018-08-18T15:22:06.981Z,8.73
2018-08-18T15:24:35.562Z,8.57
2018-08-18T15:27:04.045Z,9.80
2018-08-18T15:29:32.623Z,8.10
2018-08-18T15:32:01.430Z,8.90
2018-08-18T15:34:30.488Z,8.27
2018-08-18T15:36:59.221Z,10.30
2018-08-18T15:39:29.164Z,8.43
2018-08-18T15:41:59.164Z,8.53
2018-08-18T15:44:27.878Z,8.07
2018-08-18T15:46:56.792Z,8.10
2018-08-18T15:49:25.445Z,8.70
2018-08-18T15:51:54.475Z,8.07
2018-08-18T15:54:25.016Z,10.83
2018-08-18T15:56:54.020Z,8.40
2018-08-18T15:59:22.694Z,8.90
2018-08-18T16:01:51.171Z,12.97
2018-08-18T16:04:19.764Z,8.67
2018-08-18T16:06:48.119Z,8.60
2018-08-18T16:09:16.541Z,8.23
2018-08-18T16:11:45.019Z,10.73
2018-08-18T16:14:13.534Z,8.47
2018-08-18T16:16:56.904Z,8.77
2018-08-18T16:19:26.064Z,8.53
2018-08-18T16:21:56.010Z,14.37
2018-08-18T16:24:32.856Z,8.10
2018-08-18T16:27:05.178Z,8.93
2018-08-18T16:29:34.036Z,8.90
2018-08-18T16:32:21.657Z,8.73
2018-08-18T16:35:13.290Z,10.80
2018-08-18T16:37:43.908Z,9.17
2018-08-18T16:40:12.554Z,9.37
2018-08-18T16:42:41.062Z,8.73
2018-08-18T16:45:09.798Z,8.70
2018-08-18T16:47:43.428Z,9.27
2018-08-18T16:50:11.968Z,8.80
2018-08-18T16:52:40.475Z,9.50
2018-08-18T16:55:08.970Z,8.83
2018-08-18T16:57:37.540Z,8.73
2018-08-18T17:00:06.026Z,8.83
2018-08-18T17:02:36.141Z,9.70
2018-08-18T17:05:06.162Z,10.03
2018-08-18T17:07:34.719Z,10.20
2018-08-18T17:10:03.301Z,10.40
2018-08-18T17:12:32.754Z,9.43
2018-08-18T17:15:02.020Z,9.73
2018-08-18T17:17:31.359Z,8.60
2018-08-18T17:20:01.252Z,8.47
2018-08-18T17:22:30.187Z,8.57
2018-08-18T17:24:58.620Z,8.77
2018-08-18T17:27:29.337Z,9.80
2018-08-18T17:29:57.931Z,9.30
2018-08-18T17:32:26.902Z,9.37
2018-08-18T17:34:55.556Z,11.27
2018-08-18T17:37:23.975Z,9.00
2018-08-18T17:39:52.500Z,9.03
2018-08-18T17:42:21.653Z,8.70
2018-08-18T17:44:50.216Z,10.57
2018-08-18T17:47:18.672Z,8.30
2018-08-18T17:49:54.767Z,9.97
2018-08-18T17:52:23.552Z,8.87
2018-08-18T17:55:06.602Z,9.33
2018-08-18T17:57:36.719Z,8.20
2018-08-18T18:00:14.018Z,16.43
2018-08-18T18:02:48.139Z,10.53
2018-08-18T18:05:20.941Z,9.60
2018-08-18T18:07:54.817Z,8.50
2018-08-18T18:10:24.796Z,8.80
2018-08-18T18:12:53.462Z,8.37
2018-08-18T18:15:29.992Z,11.10
2018-08-18T18:17:58.415Z,8.10
2018-08-18T18:20:31.026Z,8.10
2018-08-18T18:22:59.642Z,10.97
2018-08-18T18:25:28.427Z,8.43
2018-08-18T18:27:56.931Z,8.73
2018-08-18T18:30:27.199Z,9.30
2018-08-18T18:32:56.183Z,9.17
2018-08-18T18:35:25.186Z,8.83
2018-08-18T18:37:56.452Z,9.70
2018-08-18T18:40:25.121Z,9.47
2018-08-18T18:42:53.625Z,8.40
2018-08-18T18:45:24.237Z,9.30
2018-08-18T18:47:52.663Z,8.63
2018-08-18T18:50:21.638Z,9.03
2018-08-18T18:52:50.400Z,9.90
2018-08-18T18:55:19.143Z,9.63
2018-08-18T18:58:03.305Z,8.60
2018-08-18T19:00:33.977Z,9.23
2018-08-18T19:03:02.769Z,8.63
2018-08-18T19:05:32.314Z,9.63
2018-08-18T19:08:06.838Z,9.03
2018-08-18T19:10:35.698Z,9.37
2018-08-18T19:13:04.728Z,9.87
2018-08-18T19:15:33.165Z,10.77
2018-08-18T19:18:02.554Z,8.63
2018-08-18T19:20:31.678Z,8.73
2018-08-18T19:23:06.812Z,9.53
2018-08-18T19:25:36.198Z,9.80
2018-08-18T19:28:05.136Z,10.57
2018-08-18T19:30:34.230Z,8.70
2018-08-18T19:33:03.081Z,9.63
2018-08-18T19:35:37.442Z,9.60
2018-08-18T19:38:06.283Z,10.63
2018-08-18T19:40:35.971Z,8.83
2018-08-18T19:43:13.807Z,9.03
2018-08-18T19:45:42.326Z,9.37
2018-08-18T19:48:11.554Z,9.77
2018-08-18T19:51:00.172Z,8.93
2018-08-18T19:53:31.143Z,10.50
2018-08-18T19:56:00.603Z,10.37
2018-08-18T19:58:30.267Z,9.67
2018-08-18T20:00:58.756Z,10.77
2018-08-18T20:03:27.475Z,8.97
2018-08-18T20:05:56.051Z,8.57
2018-08-18T20:08:25.863Z,8.77
2018-08-18T20:10:54.520Z,8.90
2018-08-18T20:13:24.425Z,8.30
2018-08-18T20:15:54.461Z,8.73
2018-08-18T20:18:22.908Z,8.67
2018-08-18T20:20:51.689Z,8.30
2018-08-18T20:23:21.008Z,9.20
2018-08-18T20:25:50.216Z,8.40
2018-08-18T20:28:18.679Z,8.33
2018-08-18T20:30:47.543Z,8.77
2018-08-18T20:33:15.988Z,8.50
2018-08-18T20:35:44.876Z,10.33
2018-08-18T20:38:13.271Z,8.97
2018-08-18T20:40:41.791Z,9.90
2018-08-18T20:43:10.197Z,8.23
2018-08-18T20:45:43.974Z,8.13
2018-08-18T20:48:15.181Z,9.40
2018-08-18T20:50:43.722Z,9.50
2018-08-18T20:53:12.692Z,8.60
2018-08-18T20:55:43.539Z,7.97
2018-08-18T20:58:12.253Z,9.33
2018-08-18T21:00:40.809Z,8.90
2018-08-18T21:03:09.647Z,8.07
2018-08-18T21:05:38.175Z,9.60
2018-08-18T21:08:15.041Z,10.23
2018-08-18T21:10:43.661Z,8.53
2018-08-18T21:13:12.294Z,8.33
2018-08-18T21:15:40.742Z,14.87
2018-08-18T21:18:13.545Z,7.97
2018-08-18T21:20:42.053Z,7.87
2018-08-18T21:23:10.891Z,9.10
2018-08-18T21:25:48.144Z,8.83
2018-08-18T21:28:17.755Z,8.97
2018-08-18T21:30:46.628Z,7.67
2018-08-18T21:33:15.186Z,8.50
2018-08-18T21:35:43.804Z,8.50
2018-08-18T21:38:12.674Z,7.90
2018-08-18T21:40:41.275Z,7.80
2018-08-18T21:43:42.037Z,8.13
2018-08-18T21:46:10.459Z,8.40
2018-08-18T21:48:49.102Z,7.70
2018-08-18T21:51:17.771Z,8.77
2018-08-18T21:53:46.480Z,8.13
2018-08-18T21:56:14.976Z,7.87
2018-08-18T21:58:43.577Z,8.13
2018-08-18T22:01:19.700Z,9.40
2018-08-18T22:03:49.308Z,7.93
2018-08-18T22:06:18.156Z,7.83
2018-08-18T22:08:46.661Z,9.43
2018-08-18T22:11:18.130Z,7.53
2018-08-18T22:13:54.348Z,9.30
2018-08-18T22:16:23.467Z,8.03
2018-08-18T22:18:57.502Z,8.83
2018-08-18T22:21:30.350Z,8.30
2018-08-18T22:24:01.077Z,8.43
2018-08-18T22:26:30.463Z,7.20
2018-08-18T22:29:03.682Z,8.53
2018-08-18T22:31:33.298Z,7.57
2018-08-18T22:34:03.393Z,7.03
2018-08-18T22:36:33.724Z,7.57
2018-08-18T22:39:04.960Z,7.33
2018-08-18T22:41:33.906Z,8.20
2018-08-18T22:44:02.399Z,7.33
2018-08-18T22:46:31.724Z,8.47
2018-08-18T22:49:00.409Z,7.33
2018-08-18T22:51:30.525Z,6.77
2018-08-18T22:53:58.937Z,8.77
2018-08-18T22:56:32.785Z,7.37
2018-08-18T22:59:02.011Z,6.70
2018-08-18T23:01:31.416Z,9.63
2018-08-18T23:03:59.910Z,7.17
2018-08-18T23:06:30.413Z,7.07
2018-08-18T23:08:58.859Z,7.60
2018-08-18T23:11:27.470Z,7.43
2018-08-18T23:13:55.949Z,7.80
2018-08-18T23:16:24.548Z,7.37
2018-08-18T23:18:53.659Z,6.03
2018-08-18T23:21:28.606Z,6.70
2018-08-18T23:23:58.121Z,6.43
2018-08-18T23:26:26.592Z,6.53
2018-08-18T23:28:55.039Z,6.77
2018-08-18T23:31:23.861Z,5.47
2018-08-18T23:33:52.328Z,6.37
2018-08-18T23:36:20.853Z,6.80
2018-08-18T23:38:54.505Z,6.87
2018-08-18T23:41:23.037Z,6.63
2018-08-18T23:43:51.962Z,6.67
2018-08-18T23:46:20.442Z,8.57
2018-08-18T23:48:48.871Z,8.40
2018-08-18T23:51:17.426Z,7.30
2018-08-18T23:53:46.260Z,6.77
2018-08-18T23:56:14.695Z,8.30
2018-08-18T23:58:43.566Z,8.90
